Time;durP1;ratioP1;P1;durP2;ratioP2;P2;SDS_P1;SDS_P2;PMS_P1;PMS_P2;Temp;Humidity;BMP_temperature;BMP_pressure;BME280_temperature;BME280_humidity;BME280_pressure;Samples;Min_cycle;Max_cycle;Signal;HPM_P1;HPM_P2
2024/01/16 00:01:26;;;;;;;32.67;13.03;;;;;;;6.40;53.83;97666.34;5100542;27;20649;-88
2024/01/16 00:03:52;;;;;;;32.27;12.77;;;;;;;6.53;54.09;97661.22;5137244;27;20182;-89
2024/01/16 00:06:17;;;;;;;26.77;11.53;;;;;;;6.60;53.98;97665.16;5137717;27;20642;-89
2024/01/16 00:08:43;;;;;;;32.00;13.80;;;;;;;6.70;54.31;97672.34;5135644;27;20236;-89
2024/01/16 00:11:08;;;;;;;26.03;13.03;;;;;;;6.62;53.65;97669.34;5137160;27;20178;-89
2024/01/16 00:13:35;;;;;;;29.53;12.77;;;;;;;6.57;54.00;97679.19;5136948;27;20179;-90
2024/01/16 00:16:02;;;;;;;29.20;13.93;;;;;;;6.68;54.48;97681.97;5124798;27;20187;-89
2024/01/16 00:18:28;;;;;;;25.80;10.40;;;;;;;6.60;55.09;97681.59;5098827;28;20176;-89
2024/01/16 00:20:53;;;;;;;30.10;12.83;;;;;;;6.56;55.49;97679.28;5117298;27;20193;-89
2024/01/16 00:23:19;;;;;;;31.17;11.83;;;;;;;6.64;54.74;97669.25;5119596;27;20167;-89
2024/01/16 00:25:44;;;;;;;28.17;12.10;;;;;;;6.76;54.27;97665.91;5118559;27;20534;-89
2024/01/16 00:28:09;;;;;;;31.03;13.63;;;;;;;6.79;53.56;97663.94;5136387;27;20199;-89
2024/01/16 00:30:35;;;;;;;24.53;11.87;;;;;;;6.76;53.54;97665.91;5118885;27;20202;-89
2024/01/16 00:33:01;;;;;;;31.60;12.43;;;;;;;6.82;53.20;97663.75;5118857;27;20174;-89
2024/01/16 00:35:26;;;;;;;30.87;13.00;;;;;;;6.91;53.84;97654.56;5111070;28;20179;-89
2024/01/16 00:37:52;;;;;;;27.30;12.90;;;;;;;6.94;53.56;97656.13;5109662;27;20270;-89
2024/01/16 00:40:17;;;;;;;28.20;12.33;;;;;;;7.01;53.08;97649.63;5118324;27;20254;-89
2024/01/16 00:42:43;;;;;;;28.77;12.03;;;;;;;6.96;52.66;97644.69;5136278;27;20513;-89
2024/01/16 00:45:09;;;;;;;29.17;12.47;;;;;;;7.01;53.32;97644.41;5118639;27;20206;-90
2024/01/16 00:47:34;;;;;;;27.37;13.10;;;;;;;7.04;53.06;97639.84;5119121;27;20261;-89
2024/01/16 00:50:01;;;;;;;34.20;13.20;;;;;;;7.02;52.76;97636.50;5118185;27;20283;-89
2024/01/16 00:52:27;;;;;;;31.97;12.43;;;;;;;6.96;53.11;97636.03;5136270;27;20178;-89
2024/01/16 00:54:52;;;;;;;30.20;13.63;;;;;;;7.02;53.39;97625.25;5136108;27;20178;-89
2024/01/16 00:57:19;;;;;;;32.87;13.60;;;;;;;7.09;53.03;97629.13;5136129;27;20179;-89
2024/01/16 00:59:46;;;;;;;29.87;13.53;;;;;;;7.25;52.38;97635.06;5136403;27;20227;-89
2024/01/16 01:02:11;;;;;;;33.53;13.73;;;;;;;7.29;52.09;97637.38;5135829;27;20178;-90
2024/01/16 01:04:37;;;;;;;29.43;14.37;;;;;;;7.36;51.88;97624.81;5117900;27;20175;-90
2024/01/16 01:07:03;;;;;;;34.83;13.60;;;;;;;7.38;52.10;97617.72;5117786;27;20695;-89
2024/01/16 01:09:28;;;;;;;26.53;13.50;;;;;;;7.41;52.07;97612.31;5135735;27;20202;-89
2024/01/16 01:11:54;;;;;;;28.70;13.63;;;;;;;7.45;51.70;97618.97;5135893;27;20163;-90
2024/01/16 01:14:19;;;;;;;30.23;12.73;;;;;;;7.47;51.58;97619.72;5135814;27;20208;-89
2024/01/16 01:16:45;;;;;;;30.23;12.03;;;;;;;7.53;51.18;97619.34;5135770;27;20647;-89
2024/01/16 01:19:10;;;;;;;30.77;13.53;;;;;;;7.53;50.57;97621.94;5135657;27;20175;-89
2024/01/16 01:21:36;;;;;;;30.23;13.50;;;;;;;7.48;51.00;97624.00;5135593;27;20612;-89
2024/01/16 01:24:01;;;;;;;31.30;13.60;;;;;;;7.46;51.29;97618.06;5135513;27;20189;-89
2024/01/16 01:26:27;;;;;;;28.70;12.33;;;;;;;7.38;50.99;97615.09;5135461;27;20179;-89
2024/01/16 01:28:52;;;;;;;29.67;13.33;;;;;;;7.40;52.02;97613.22;5135420;27;20207;-89
2024/01/16 01:31:18;;;;;;;29.43;13.50;;;;;;;7.46;50.95;97618.06;5135582;27;20167;-89
2024/01/16 01:33:43;;;;;;;29.60;13.13;;;;;;;7.45;51.35;97608.56;5135348;27;20167;-89
2024/01/16 01:36:09;;;;;;;32.43;13.13;;;;;;;7.43;50.99;97610.44;5117453;27;20198;-89
2024/01/16 01:38:35;;;;;;;27.83;13.57;;;;;;;7.36;51.00;97609.16;5117571;27;20248;-89
2024/01/16 01:41:00;;;;;;;37.93;15.50;;;;;;;7.15;50.46;97613.13;5135118;27;20212;-89
2024/01/16 01:43:26;;;;;;;32.80;16.13;;;;;;;7.00;51.73;97616.66;5116982;27;20609;-89
2024/01/16 01:46:16;;;;;;;39.07;14.67;;;;;;;6.89;51.41;97616.53;5117194;27;20248;-90
2024/01/16 01:48:42;;;;;;;37.13;15.80;;;;;;;6.87;52.05;97611.38;5116933;27;20263;-89
2024/01/16 01:51:12;;;;;;;32.43;16.57;;;;;;;6.96;52.25;97608.22;5135423;27;20258;-89
2024/01/16 01:53:39;;;;;;;39.70;16.97;;;;;;;6.99;51.38;97596.78;5134814;27;20266;-90
2024/01/16 01:56:08;;;;;;;35.13;15.93;;;;;;;6.98;52.02;97597.72;5135040;27;20175;-89
2024/01/16 01:58:34;;;;;;;45.20;17.87;;;;;;;7.00;51.85;97595.84;5134885;27;20190;-89
2024/01/16 02:01:05;;;;;;;46.23;18.97;;;;;;;6.99;51.83;97581.16;5134934;27;20177;-90
2024/01/16 02:03:44;;;;;;;39.23;16.03;;;;;;;6.85;52.28;97586.38;5116833;27;20206;-89
2024/01/16 02:06:15;;;;;;;36.40;15.00;;;;;;;6.90;52.68;97594.75;5134875;27;20241;-90
2024/01/16 02:08:40;;;;;;;45.00;17.00;;;;;;;7.05;52.11;97599.00;5135055;27;20557;-90
2024/01/16 02:11:06;;;;;;;44.80;16.37;;;;;;;7.04;51.43;97592.13;5134521;27;20186;-89
2024/01/16 02:13:32;;;;;;;37.67;15.17;;;;;;;7.06;51.54;97585.88;5134920;27;20632;-90
2024/01/16 02:15:57;;;;;;;32.20;14.93;;;;;;;7.03;51.13;97577.41;5134691;27;20171;-89
2024/01/16 02:18:23;;;;;;;38.13;16.50;;;;;;;7.11;51.46;97583.81;5116178;27;20241;-89
2024/01/16 02:20:48;;;;;;;35.10;16.30;;;;;;;7.17;51.41;97588.66;5134557;27;20175;-90
2024/01/16 02:23:15;;;;;;;38.83;16.27;;;;;;;7.20;50.89;97604.09;5116357;27;20200;-89
2024/01/16 02:25:44;;;;;;;32.93;14.57;;;;;;;7.17;50.54;97619.06;5116451;27;20190;-89
2024/01/16 02:28:10;;;;;;;46.00;16.23;;;;;;;7.12;50.74;97608.94;5134620;27;20198;-89
2024/01/16 02:30:35;;;;;;;31.03;14.77;;;;;;;7.04;50.79;97618.16;5115849;28;20211;-89
2024/01/16 02:33:01;;;;;;;39.63;16.17;;;;;;;7.02;50.90;97617.44;5134151;27;20628;-89
2024/01/16 02:35:27;;;;;;;37.37;17.00;;;;;;;6.97;51.41;97622.09;5134180;27;20228;-89
2024/01/16 02:37:52;;;;;;;42.60;17.07;;;;;;;6.84;51.46;97626.41;5134413;27;20167;-89
2024/01/16 02:40:18;;;;;;;35.57;17.27;;;;;;;6.73;51.94;97635.66;5134334;27;20182;-90
2024/01/16 02:42:43;;;;;;;41.43;17.50;;;;;;;6.74;52.07;97632.16;5134333;27;20580;-89
2024/01/16 02:45:09;;;;;;;56.43;18.67;;;;;;;6.76;52.59;97640.69;5134047;27;20581;-89
2024/01/16 02:47:35;;;;;;;37.90;17.27;;;;;;;6.77;52.30;97646.75;5134331;27;20173;-89
2024/01/16 02:50:02;;;;;;;36.43;17.03;;;;;;;6.70;52.94;97643.69;5134466;28;20281;-89
2024/01/16 02:52:28;;;;;;;38.70;16.73;;;;;;;6.57;52.80;97647.97;5116296;28;20171;-89
2024/01/16 02:54:53;;;;;;;34.07;16.43;;;;;;;6.59;52.69;97651.31;5134197;28;20523;-89
2024/01/16 02:57:19;;;;;;;37.10;16.63;;;;;;;6.63;52.50;97650.19;5128019;28;20632;-89
2024/01/16 02:59:44;;;;;;;39.70;16.80;;;;;;;6.59;51.86;97653.91;5113866;28;20580;-89
2024/01/16 03:02:11;;;;;;;39.37;15.47;;;;;;;6.50;52.34;97659.66;5096228;28;20194;-89
2024/01/16 03:04:37;;;;;;;47.20;15.87;;;;;;;6.40;51.92;97655.94;5127831;28;20190;-89
2024/01/16 03:07:02;;;;;;;41.07;16.17;;;;;;;6.38;52.17;97665.59;5134612;28;20519;-89
2024/01/16 03:09:28;;;;;;;31.80;13.73;;;;;;;6.18;52.11;97664.16;5115881;28;20262;-88
2024/01/16 03:11:53;;;;;;;31.83;14.80;;;;;;;6.16;52.98;97659.97;5134395;27;20186;-88
2024/01/16 03:14:19;;;;;;;34.07;13.27;;;;;;;5.88;52.79;97665.94;5116246;28;20262;-89
2024/01/16 03:16:44;;;;;;;31.03;13.77;;;;;;;5.83;53.51;97672.28;5116059;28;20186;-89
2024/01/16 03:19:12;;;;;;;40.97;16.40;;;;;;;5.95;53.11;97666.41;5133974;28;20727;-88
2024/01/16 03:21:37;;;;;;;31.47;13.60;;;;;;;6.06;52.91;97658.84;5116079;28;20223;-89
2024/01/16 03:24:04;;;;;;;31.53;13.70;;;;;;;6.10;52.64;97660.34;5134001;28;20264;-89
2024/01/16 03:26:29;;;;;;;32.53;13.50;;;;;;;6.08;52.83;97659.56;5115697;28;20259;-89
2024/01/16 03:28:55;;;;;;;34.97;13.97;;;;;;;6.17;52.56;97659.91;5133767;28;20214;-90
2024/01/16 03:31:21;;;;;;;33.43;14.13;;;;;;;6.23;52.30;97657.84;5116558;28;20204;-89
2024/01/16 03:33:46;;;;;;;37.27;14.10;;;;;;;6.28;52.34;97656.66;5113310;28;20179;-89
2024/01/16 03:36:12;;;;;;;32.17;13.67;;;;;;;6.38;51.64;97663.00;5116381;28;20518;-89
2024/01/16 03:38:40;;;;;;;36.53;15.40;;;;;;;6.41;51.55;97665.41;5133637;28;20179;-89
2024/01/16 03:41:06;;;;;;;39.43;15.43;;;;;;;6.38;51.49;97665.59;5133931;28;20179;-89
2024/01/16 03:43:35;;;;;;;43.87;14.87;;;;;;;6.07;52.08;97663.13;5117461;27;20232;-89
2024/01/16 03:46:01;;;;;;;30.00;14.33;;;;;;;6.03;52.01;97682.41;5137903;27;20170;-88
2024/01/16 03:48:27;;;;;;;31.27;13.97;;;;;;;6.13;52.02;97673.19;5137549;27;20202;-90
2024/01/16 03:50:54;;;;;;;29.10;12.50;;;;;;;6.28;51.67;97682.69;5119622;27;20203;-89
2024/01/16 03:53:20;;;;;;;34.87;13.43;;;;;;;6.27;51.21;97686.19;5119510;27;20346;-89
2024/01/16 03:55:46;;;;;;;29.30;12.57;;;;;;;6.19;51.49;97685.81;5119961;27;20633;-88
2024/01/16 03:58:12;;;;;;;33.07;12.87;;;;;;;6.12;51.42;97689.69;5137785;27;20175;-88
2024/01/16 04:00:37;;;;;;;32.03;12.13;;;;;;;6.05;52.01;97694.41;5119189;27;20545;-89
2024/01/16 04:03:03;;;;;;;30.33;13.50;;;;;;;6.14;51.71;97703.44;5137037;27;20201;-88
2024/01/16 04:05:29;;;;;;;35.20;15.27;;;;;;;6.11;51.54;97712.25;5119375;27;20625;-88
2024/01/16 04:07:54;;;;;;;32.00;12.97;;;;;;;6.07;51.98;97712.53;5119628;27;20624;-89
2024/01/16 04:10:20;;;;;;;26.57;12.30;;;;;;;6.13;51.63;97727.81;5137192;27;20202;-89
2024/01/16 04:12:45;;;;;;;32.40;13.80;;;;;;;6.03;51.77;97734.41;5122846;27;20168;-89
2024/01/16 04:15:11;;;;;;;35.53;15.43;;;;;;;5.97;52.27;97729.59;5112794;27;20190;-89
2024/01/16 04:17:37;;;;;;;27.70;13.23;;;;;;;5.96;52.26;97730.50;5118973;27;20179;-88
2024/01/16 04:20:03;;;;;;;30.43;12.80;;;;;;;5.95;52.13;97726.22;5118760;27;20232;-89
2024/01/16 04:22:28;;;;;;;29.90;13.23;;;;;;;5.85;52.17;97738.06;5118793;27;20175;-89
2024/01/16 04:24:54;;;;;;;33.83;13.33;;;;;;;5.80;52.60;97742.66;5118775;27;20182;-88
2024/01/16 04:27:20;;;;;;;33.37;14.93;;;;;;;5.46;53.32;97751.47;5136769;27;20194;-88
2024/01/16 04:29:45;;;;;;;32.40;14.43;;;;;;;5.41;53.46;97754.31;5137228;27;20204;-90
2024/01/16 04:32:10;;;;;;;30.03;13.07;;;;;;;5.47;53.78;97748.78;5116588;27;20187;-89
2024/01/16 04:34:36;;;;;;;33.03;13.33;;;;;;;5.57;53.65;97760.38;5116101;28;20626;-89
2024/01/16 04:37:03;;;;;;;31.33;14.93;;;;;;;5.63;53.22;97760.94;5129710;27;20179;-88
2024/01/16 04:39:28;;;;;;;31.27;14.97;;;;;;;5.67;53.78;97767.66;5118793;27;20258;-89
2024/01/16 04:41:54;;;;;;;37.17;16.20;;;;;;;5.66;54.12;97764.19;5136149;27;20206;-88
2024/01/16 04:44:19;;;;;;;48.53;18.13;;;;;;;5.80;53.71;97771.25;5118967;27;20651;-88
2024/01/16 04:46:45;;;;;;;88.00;32.03;;;;;;;5.89;52.97;97775.97;5118601;27;20182;-89
2024/01/16 04:49:11;;;;;;;73.03;24.23;;;;;;;5.87;53.46;97777.84;5118006;27;20201;-88
2024/01/16 04:51:36;;;;;;;65.93;22.53;;;;;;;5.83;53.82;97786.69;5118236;27;20178;-88
2024/01/16 04:54:02;;;;;;;46.87;21.80;;;;;;;5.87;53.70;97796.03;5118161;27;20216;-89
2024/01/16 04:56:28;;;;;;;37.00;17.73;;;;;;;5.83;54.19;97797.06;5135931;27;20649;-89
2024/01/16 04:58:53;;;;;;;65.57;27.53;;;;;;;5.80;54.11;97797.25;5118407;27;20182;-88
2024/01/16 05:01:19;;;;;;;47.50;21.17;;;;;;;5.79;54.53;97790.38;5117925;27;20182;-88
2024/01/16 05:03:44;;;;;;;41.27;21.13;;;;;;;5.81;54.35;97789.38;5136397;27;20182;-89
2024/01/16 05:06:17;;;;;;;38.00;17.33;;;;;;;5.78;54.83;97796.50;5117952;27;20175;-88
2024/01/16 05:08:43;;;;;;;41.03;18.47;;;;;;;5.55;55.43;97797.75;5118087;27;20193;-89
2024/01/16 05:11:09;;;;;;;43.37;21.10;;;;;;;5.43;56.24;97808.78;5117692;27;20616;-89
2024/01/16 05:13:34;;;;;;;46.33;20.10;;;;;;;5.44;56.62;97806.13;5118116;27;20189;-88
2024/01/16 05:16:00;;;;;;;49.17;20.23;;;;;;;5.59;56.01;97799.25;5135653;27;20222;-88
2024/01/16 05:18:25;;;;;;;53.50;19.47;;;;;;;5.61;55.86;97804.38;5118044;27;20216;-88
2024/01/16 05:20:50;;;;;;;44.63;17.87;;;;;;;5.67;55.98;97807.47;5136013;27;20182;-88
2024/01/16 05:23:16;;;;;;;46.00;18.80;;;;;;;5.69;55.62;97816.03;5135329;27;20183;-88
2024/01/16 05:25:41;;;;;;;36.43;16.00;;;;;;;5.71;55.48;97829.78;5117563;27;20217;-89
2024/01/16 05:28:07;;;;;;;35.63;15.77;;;;;;;5.69;55.03;97822.97;5117459;27;20614;-89
2024/01/16 05:30:33;;;;;;;42.33;16.77;;;;;;;5.76;55.39;97843.38;5117666;27;20333;-88
2024/01/16 05:33:00;;;;;;;31.87;15.00;;;;;;;5.82;55.45;97843.03;5117706;27;20183;-87
2024/01/16 05:35:27;;;;;;;29.77;12.67;;;;;;;5.86;55.31;97847.19;5135383;27;20186;-88
2024/01/16 05:37:53;;;;;;;32.87;12.80;;;;;;;5.77;55.85;97860.63;5135451;27;20186;-88
2024/01/16 05:40:18;;;;;;;26.10;11.80;;;;;;;5.73;56.19;97858.28;5117563;27;20170;-88
2024/01/16 05:42:44;;;;;;;28.20;12.23;;;;;;;5.72;56.60;97846.22;5135124;27;20266;-87
2024/01/16 05:45:09;;;;;;;25.80;12.37;;;;;;;5.70;57.41;97874.06;5118253;27;20183;-88
2024/01/16 05:47:35;;;;;;;41.30;12.70;;;;;;;5.49;57.53;97896.81;5135483;27;20575;-88
2024/01/16 05:50:00;;;;;;;23.17;10.53;;;;;;;5.25;58.35;97914.50;5134882;27;20198;-88
2024/01/16 05:52:26;;;;;;;31.30;12.47;;;;;;;5.27;58.14;97907.47;5135404;27;20571;-88
2024/01/16 05:54:51;;;;;;;25.87;11.67;;;;;;;5.37;58.99;97900.06;5135265;27;20197;-88
2024/01/16 05:57:17;;;;;;;22.07;9.67;;;;;;;5.43;58.29;97917.91;5117007;27;20178;-88
2024/01/16 05:59:42;;;;;;;27.77;11.13;;;;;;;5.52;57.56;97907.91;5116745;27;20541;-87
2024/01/16 06:02:07;;;;;;;23.53;10.07;;;;;;;5.52;57.17;97928.69;5135094;27;20341;-88
2024/01/16 06:04:33;;;;;;;23.30;10.33;;;;;;;5.35;57.73;97946.88;5112504;28;20236;-88
2024/01/16 06:06:58;;;;;;;25.17;10.53;;;;;;;5.11;57.27;97958.50;5113466;28;20514;-87
2024/01/16 06:09:24;;;;;;;28.90;11.57;;;;;;;4.82;58.52;97959.09;5130305;27;20553;-88
2024/01/16 06:11:49;;;;;;;36.57;14.37;;;;;;;4.78;58.72;97966.19;5114210;28;20177;-88
2024/01/16 06:14:21;;;;;;;32.30;15.43;;;;;;;4.70;59.47;97972.63;5132868;27;20187;-87
2024/01/16 06:16:47;;;;;;;50.80;19.73;;;;;;;4.77;59.40;97968.84;5116625;27;20275;-88
2024/01/16 06:19:12;;;;;;;41.23;15.40;;;;;;;4.61;59.63;97979.09;5116825;27;20275;-88
2024/01/16 06:21:39;;;;;;;41.87;16.77;;;;;;;4.66;59.60;97973.72;5116537;27;20193;-88
2024/01/16 06:24:05;;;;;;;32.37;12.40;;;;;;;4.58;59.57;97991.41;5116543;27;20179;-89
2024/01/16 06:26:31;;;;;;;23.73;10.37;;;;;;;4.25;60.37;98006.75;5116288;27;20186;-89
2024/01/16 06:28:57;;;;;;;24.63;13.07;;;;;;;4.07;61.54;98017.94;5134673;27;20205;-88
2024/01/16 06:31:23;;;;;;;24.47;11.83;;;;;;;4.01;61.64;98037.19;5134825;27;20174;-92
2024/01/16 06:33:48;;;;;;;31.80;12.10;;;;;;;4.12;61.05;98045.34;5134937;27;20177;-89
2024/01/16 06:36:14;;;;;;;25.80;12.00;;;;;;;4.46;60.96;98067.19;5134774;27;20259;-89
2024/01/16 06:38:40;;;;;;;22.33;10.43;;;;;;;4.71;59.48;98078.16;5134353;27;20189;-91
2024/01/16 06:41:06;;;;;;;23.83;11.07;;;;;;;5.18;57.65;98081.13;5116383;27;20171;-90
2024/01/16 06:43:31;;;;;;;34.73;13.53;;;;;;;5.89;55.48;98093.22;5134451;27;20179;-89
2024/01/16 06:45:57;;;;;;;30.20;11.70;;;;;;;6.38;53.32;98089.78;5134020;27;20200;-90
2024/01/16 06:48:22;;;;;;;36.60;12.73;;;;;;;6.93;51.88;98079.84;5134370;27;20256;-90
2024/01/16 06:50:47;;;;;;;26.57;10.80;;;;;;;6.97;49.82;98076.13;5134256;28;20281;-90
2024/01/16 06:53:13;;;;;;;24.13;11.83;;;;;;;7.27;49.70;98065.78;5116133;28;20229;-90
2024/01/16 06:55:38;;;;;;;28.30;11.77;;;;;;;7.59;48.17;98075.22;5134743;28;20219;-91
2024/01/16 06:58:04;;;;;;;29.40;12.17;;;;;;;7.90;47.96;98072.53;5116355;28;20183;-91
2024/01/16 07:00:29;;;;;;;26.83;11.03;;;;;;;8.55;46.02;98070.34;5116644;28;20177;-90
2024/01/16 07:02:55;;;;;;;25.57;11.37;;;;;;;9.18;44.15;98070.72;5107046;28;20190;-91
2024/01/16 07:05:21;;;;;;;25.23;10.73;;;;;;;9.39;42.99;98069.34;5113882;28;20171;-92
2024/01/16 07:07:47;;;;;;;17.47;7.93;;;;;;;9.10;42.89;98079.06;5096034;28;20180;-92
2024/01/16 07:10:18;;;;;;;21.93;7.93;;;;;;;9.32;42.30;98086.38;5109431;28;20648;-93
2024/01/16 07:12:44;;;;;;;16.10;7.57;;;;;;;9.11;42.89;98074.66;5116482;28;20534;-91
2024/01/16 07:15:09;;;;;;;16.70;7.77;;;;;;;9.48;42.85;98081.84;5134282;28;20172;-91
2024/01/16 07:17:35;;;;;;;16.53;8.47;;;;;;;9.82;42.24;98085.69;5134834;27;20182;-90
2024/01/16 07:20:00;;;;;;;16.03;7.43;;;;;;;10.07;41.66;98092.75;5120407;27;20267;-91
2024/01/16 07:22:27;;;;;;;18.90;7.73;;;;;;;9.87;41.79;98094.09;5138377;27;20249;-93
2024/01/16 07:24:55;;;;;;;20.37;7.87;;;;;;;9.57;41.93;98098.69;5120511;27;20176;-96
2024/01/16 07:27:21;;;;;;;18.33;6.67;;;;;;;9.33;42.33;98090.66;5131126;27;20194;-93
2024/01/16 07:29:46;;;;;;;15.40;6.47;;;;;;;9.15;43.29;98108.34;5099799;28;20548;-91
2024/01/16 07:32:11;;;;;;;14.17;6.53;;;;;;;9.31;43.25;98102.16;5117554;28;20618;-91
2024/01/16 07:34:37;;;;;;;16.97;7.27;;;;;;;9.42;43.09;98112.75;5110004;27;20194;-90
2024/01/16 07:37:03;;;;;;;14.93;7.50;;;;;;;9.43;43.08;98120.53;5119947;27;20611;-91
2024/01/16 07:39:28;;;;;;;21.03;8.77;;;;;;;9.42;42.79;98120.59;5137952;27;20171;-91
2024/01/16 07:41:53;;;;;;;18.83;7.93;;;;;;;9.63;43.29;98127.09;5119624;27;20277;-90
2024/01/16 07:44:19;;;;;;;18.17;7.47;;;;;;;9.66;42.71;98132.97;5138087;27;20261;-91
2024/01/16 07:46:44;;;;;;;16.30;7.77;;;;;;;9.62;42.56;98141.94;5119423;27;20189;-91
2024/01/16 07:49:10;;;;;;;15.23;7.10;;;;;;;9.69;42.69;98138.00;5119641;27;20213;-90
2024/01/16 07:51:35;;;;;;;18.33;8.63;;;;;;;9.82;43.66;98149.34;5137547;27;20257;-91
2024/01/16 07:54:08;;;;;;;19.33;8.17;;;;;;;9.83;43.66;98160.63;5119715;27;20192;-91
2024/01/16 07:56:35;;;;;;;25.73;8.50;;;;;;;9.95;43.13;98159.00;5137503;27;20624;-92
2024/01/16 07:59:01;;;;;;;16.40;8.33;;;;;;;10.18;43.91;98172.28;5119419;27;20253;-91
2024/01/16 08:01:28;;;;;;;21.27;8.73;;;;;;;10.27;42.84;98187.38;5137853;27;20205;-92
2024/01/16 08:03:56;;;;;;;16.13;8.27;;;;;;;10.34;44.09;98186.06;5119278;27;20178;-92
2024/01/16 08:06:23;;;;;;;16.27;7.43;;;;;;;10.36;43.53;98189.41;5137588;27;20171;-95
2024/01/16 08:08:49;;;;;;;19.23;8.50;;;;;;;10.33;44.36;98197.47;5119529;27;20191;-93
2024/01/16 08:11:18;;;;;;;19.27;7.80;;;;;;;10.23;44.26;98206.03;5119570;27;20194;-92
2024/01/16 08:13:43;;;;;;;18.60;6.97;;;;;;;10.21;44.99;98203.53;5119359;27;20247;-92
2024/01/16 08:16:09;;;;;;;22.57;8.83;;;;;;;10.23;45.26;98212.09;5119002;27;20660;-92
2024/01/16 08:18:34;;;;;;;16.90;7.97;;;;;;;10.37;44.98;98203.34;5119421;27;20175;-92
2024/01/16 08:21:00;;;;;;;12.73;6.33;;;;;;;10.39;44.97;98204.91;5119253;27;20175;-92
2024/01/16 08:23:25;;;;;;;20.20;7.83;;;;;;;10.25;45.49;98214.63;5137518;27;20171;-91
2024/01/16 08:25:51;;;;;;;17.53;8.57;;;;;;;10.35;45.34;98221.75;5119063;27;20214;-92
2024/01/16 08:28:19;;;;;;;14.47;7.40;;;;;;;10.39;45.70;98232.88;5118589;27;20270;-92
2024/01/16 08:30:45;;;;;;;17.63;8.20;;;;;;;10.27;46.46;98250.25;5117958;27;20672;-90
2024/01/16 08:33:12;;;;;;;21.27;8.17;;;;;;;10.37;46.33;98256.56;5118958;27;20183;-91
2024/01/16 08:35:37;;;;;;;21.20;9.33;;;;;;;10.16;45.94;98268.44;5119016;27;20572;-92
2024/01/16 08:38:04;;;;;;;18.20;9.30;;;;;;;9.97;46.36;98272.28;5137105;27;20179;-94
2024/01/16 08:40:29;;;;;;;29.03;12.50;;;;;;;9.93;46.71;98274.28;5118855;27;20278;-91
2024/01/16 08:42:55;;;;;;;25.67;10.13;;;;;;;10.03;46.84;98279.75;5118764;27;20221;-93
2024/01/16 08:45:21;;;;;;;29.73;10.37;;;;;;;10.06;46.28;98280.44;5136837;27;20232;-92
2024/01/16 08:47:47;;;;;;;21.40;10.07;;;;;;;10.25;46.70;98283.56;5118593;27;20194;-91
2024/01/16 08:50:13;;;;;;;24.37;9.87;;;;;;;10.36;47.07;98281.06;5119111;27;20549;-92
2024/01/16 08:52:38;;;;;;;21.20;9.60;;;;;;;10.54;46.83;98291.28;5118295;27;20257;-91
2024/01/16 08:55:04;;;;;;;24.63;10.10;;;;;;;10.87;46.77;98287.28;5136235;27;20186;-91
2024/01/16 08:57:30;;;;;;;21.60;9.60;;;;;;;10.95;46.33;98295.44;5136530;27;20668;-92
2024/01/16 08:59:55;;;;;;;19.60;10.10;;;;;;;11.17;46.43;98299.25;5118273;27;20183;-94
2024/01/16 09:02:21;;;;;;;19.70;8.90;;;;;;;11.11;45.44;98290.00;5118514;27;20229;-93
2024/01/16 09:04:50;;;;;;;18.93;8.77;;;;;;;11.17;45.77;98294.00;5136801;27;20171;-91
2024/01/16 09:07:15;;;;;;;21.40;10.20;;;;;;;11.31;45.78;98296.53;5136171;27;20171;-92
2024/01/16 09:09:42;;;;;;;22.70;8.97;;;;;;;11.55;46.45;98295.69;5118217;27;20187;-93
2024/01/16 09:12:08;;;;;;;17.60;9.20;;;;;;;11.71;46.64;98293.66;5118356;27;20183;-94
2024/01/16 09:14:34;;;;;;;19.77;9.53;;;;;;;11.87;45.96;98300.47;5136232;27;20210;-92
2024/01/16 09:16:59;;;;;;;20.70;10.27;;;;;;;11.93;45.95;98297.41;5118106;27;20204;-90
2024/01/16 09:19:25;;;;;;;18.73;8.80;;;;;;;11.66;46.02;98303.63;5136227;27;20179;-92
2024/01/16 09:21:50;;;;;;;19.17;8.30;;;;;;;11.59;46.96;98307.63;5118277;27;20179;-93
2024/01/16 09:24:16;;;;;;;21.73;8.73;;;;;;;11.65;46.71;98312.44;5118044;27;20182;-93
2024/01/16 09:26:41;;;;;;;20.43;9.00;;;;;;;11.66;47.08;98319.38;5118192;27;20269;-93
2024/01/16 09:29:09;;;;;;;20.83;8.03;;;;;;;11.68;47.88;98314.91;5117775;27;20199;-93
2024/01/16 09:31:35;;;;;;;16.90;7.40;;;;;;;11.80;47.28;98328.94;5135932;27;20189;-94
2024/01/16 09:34:01;;;;;;;17.00;7.30;;;;;;;11.67;48.24;98318.44;5117915;27;20651;-93
2024/01/16 09:36:26;;;;;;;18.83;7.57;;;;;;;11.68;47.92;98333.28;5135966;27;20175;-92
2024/01/16 09:38:52;;;;;;;13.60;7.27;;;;;;;11.87;47.65;98335.44;5136008;27;20220;-92
2024/01/16 09:41:17;;;;;;;19.03;7.70;;;;;;;11.96;47.87;98336.56;5135561;27;20191;-94
2024/01/16 09:43:46;;;;;;;11.67;6.47;;;;;;;12.10;48.02;98339.91;5118117;27;20222;-93
2024/01/16 09:46:12;;;;;;;16.03;6.43;;;;;;;12.12;47.69;98329.28;5135792;27;20189;-94
2024/01/16 09:48:37;;;;;;;12.13;6.37;;;;;;;12.12;47.98;98330.13;5117728;27;20184;-91
2024/01/16 09:51:03;;;;;;;10.20;5.57;;;;;;;12.16;48.28;98328.94;5117376;27;20260;-93
2024/01/16 09:53:28;;;;;;;12.17;6.17;;;;;;;12.18;48.79;98331.47;5118298;27;20226;-94
2024/01/16 09:55:58;;;;;;;8.10;4.37;;;;;;;12.07;48.78;98337.50;5135606;27;20299;-93
2024/01/16 09:58:25;;;;;;;7.33;4.37;;;;;;;12.30;49.31;98341.09;5117268;27;20180;-92
2024/01/16 10:00:51;;;;;;;11.50;5.17;;;;;;;12.59;48.32;98326.69;5117378;27;20647;-95
2024/01/16 10:03:23;;;;;;;3.80;1.80;;;;;;;12.07;46.92;98328.78;5117637;27;20188;-92
2024/01/16 10:05:49;;;;;;;5.50;2.63;;;;;;;11.68;48.32;98333.28;5117403;27;20188;-91
2024/01/16 10:08:21;;;;;;;8.47;3.33;;;;;;;11.70;47.71;98336.63;5135714;27;20180;-94
2024/01/16 10:10:47;;;;;;;4.97;2.57;;;;;;;11.28;49.21;98344.78;5117596;27;20212;-91
2024/01/16 10:13:17;;;;;;;5.33;2.33;;;;;;;11.60;49.03;98351.31;5117656;27;20637;-94
2024/01/16 10:15:43;;;;;;;6.63;2.43;;;;;;;11.61;49.01;98352.97;5135712;27;20181;-94
2024/01/16 10:18:23;;;;;;;5.63;2.37;;;;;;;11.85;48.61;98353.09;5135154;27;20197;-90
2024/01/16 10:20:48;;;;;;;4.50;1.87;;;;;;;11.80;48.01;98356.97;5116967;27;20201;-92
2024/01/16 10:23:25;;;;;;;2.77;1.23;;;;;;;11.97;47.22;98377.66;5116831;27;20269;-89
2024/01/16 10:26:10;;;;;;;3.00;1.63;;;;;;;11.97;48.00;98360.13;5135294;27;20165;-92
2024/01/16 10:28:38;;;;;;;4.10;1.90;;;;;;;12.30;47.79;98370.00;5116533;27;20201;-90
2024/01/16 10:31:16;;;;;;;7.67;3.40;;;;;;;12.27;47.10;98372.84;5134911;27;20204;-91
2024/01/16 10:33:41;;;;;;;3.47;2.03;;;;;;;12.67;46.92;98361.13;5135356;27;20158;-96
2024/01/16 10:36:10;;;;;;;4.90;1.50;;;;;;;12.63;45.74;98375.44;5116895;27;20268;-93
2024/01/16 10:38:40;;;;;;;5.37;2.17;;;;;;;13.05;45.61;98370.63;5117417;27;20195;-93
2024/01/16 10:41:12;;;;;;;6.57;1.33;;;;;;;12.92;45.79;98370.66;5116362;28;20216;-90
2024/01/16 10:43:39;;;;;;;4.47;1.57;;;;;;;13.03;45.25;98368.09;5116848;27;20181;-92
2024/01/16 10:46:12;;;;;;;3.73;1.43;;;;;;;13.36;44.52;98375.28;5116977;27;20186;-93
2024/01/16 10:48:39;;;;;;;2.13;1.07;;;;;;;12.88;42.17;98377.97;5116677;28;20178;-95
2024/01/16 10:51:19;;;;;;;2.13;1.17;;;;;;;12.73;42.65;98383.50;5116535;28;20216;-92
2024/01/16 10:53:46;;;;;;;7.07;1.10;;;;;;;12.81;42.29;98383.78;5116190;28;20177;-93
2024/01/16 10:56:12;;;;;;;4.40;1.20;;;;;;;12.87;41.70;98384.16;5134914;28;20175;-94
2024/01/16 10:58:40;;;;;;;3.93;1.07;;;;;;;13.00;41.46;98383.28;5116400;28;20565;-93
2024/01/16 11:01:11;;;;;;;2.47;0.90;;;;;;;13.15;41.59;98388.28;5134854;28;20182;-91
2024/01/16 11:03:37;;;;;;;2.33;1.00;;;;;;;13.10;41.27;98386.94;5134762;27;20533;-95
2024/01/16 11:06:11;;;;;;;2.70;1.10;;;;;;;13.11;41.41;98391.22;5117344;28;20201;-95
2024/01/16 11:08:40;;;;;;;2.10;0.70;;;;;;;13.15;40.56;98395.31;5115717;28;20296;-90
2024/01/16 11:11:07;;;;;;;3.30;1.03;;;;;;;12.98;40.16;98395.69;5116881;28;20351;-89
2024/01/16 11:13:34;;;;;;;1.77;0.70;;;;;;;13.31;39.56;98403.75;5134475;28;20178;-92
2024/01/16 11:16:01;;;;;;;1.83;0.90;;;;;;;13.43;38.91;98394.91;5116390;28;20510;-93
2024/01/16 11:18:29;;;;;;;2.23;0.80;;;;;;;13.39;39.64;98404.81;5116059;28;20179;-92
2024/01/16 11:20:56;;;;;;;1.67;0.70;;;;;;;13.29;39.20;98410.88;5134131;28;20180;-90
2024/01/16 11:23:22;;;;;;;1.60;0.73;;;;;;;13.51;39.12;98405.69;5134127;28;20171;-91